createdAt,value
2023-04-08T00:00:55.796Z,96.89
2023-04-08T00:03:25.103Z,96.60
2023-04-08T00:05:53.995Z,96.26
2023-04-08T00:08:24.514Z,96.48
2023-04-08T00:10:52.999Z,96.50
2023-04-08T00:13:21.680Z,96.47
2023-04-08T00:15:49.957Z,96.64
2023-04-08T00:18:18.672Z,96.52
2023-04-08T00:20:47.326Z,96.45
2023-04-08T00:23:15.908Z,96.68
2023-04-08T00:25:44.391Z,97.23
2023-04-08T00:28:14.953Z,97.55
2023-04-08T00:30:43.773Z,98.35
2023-04-08T00:33:12.308Z,98.71
2023-04-08T00:35:42.057Z,99.01
2023-04-08T00:38:10.714Z,99.37
2023-04-08T00:40:39.678Z,99.64
2023-04-08T00:43:08.465Z,99.49
2023-04-08T00:45:42.273Z,99.73
2023-04-08T00:48:11.268Z,99.46
2023-04-08T00:50:39.807Z,99.74
2023-04-08T00:53:28.221Z,99.96
2023-04-08T00:55:57.010Z,99.92
2023-04-08T00:58:26.083Z,99.94
2023-04-08T01:01:22.750Z,99.84
2023-04-08T01:03:58.749Z,100.00
2023-04-08T01:06:31.967Z,99.97
2023-04-08T01:09:00.356Z,100.00
2023-04-08T01:11:28.522Z,100.00
2023-04-08T01:13:57.108Z,99.90
2023-04-08T01:16:29.119Z,99.77
2023-04-08T01:18:57.472Z,99.69
2023-04-08T01:21:25.827Z,99.56
2023-04-08T01:24:10.185Z,99.45
2023-04-08T01:26:38.653Z,99.28
2023-04-08T01:29:07.155Z,99.61
2023-04-08T01:31:35.938Z,99.87
2023-04-08T01:34:05.032Z,99.84
2023-04-08T01:36:33.408Z,100.00
2023-04-08T01:39:02.189Z,99.91
2023-04-08T01:41:30.668Z,99.46
2023-04-08T01:44:04.581Z,98.79
2023-04-08T01:46:34.002Z,98.71
2023-04-08T01:49:04.105Z,98.95
2023-04-08T01:51:36.672Z,99.27
2023-04-08T01:54:06.127Z,99.36
2023-04-08T01:56:36.754Z,99.16
2023-04-08T01:59:07.239Z,99.48
2023-04-08T02:01:35.804Z,99.42
2023-04-08T02:04:05.051Z,99.44
2023-04-08T02:06:34.218Z,99.37
2023-04-08T02:09:03.133Z,99.10
2023-04-08T02:11:31.897Z,98.77
2023-04-08T02:14:00.690Z,99.05
2023-04-08T02:16:48.643Z,99.31
2023-04-08T02:19:29.805Z,99.66
2023-04-08T02:22:00.023Z,99.62
2023-04-08T02:24:28.773Z,99.81
2023-04-08T02:26:57.296Z,99.63
2023-04-08T02:29:26.387Z,99.67
2023-04-08T02:32:01.802Z,99.70
2023-04-08T02:34:31.238Z,99.63
2023-04-08T02:36:59.608Z,99.21
2023-04-08T02:39:32.911Z,99.16
2023-04-08T02:42:01.309Z,99.06
2023-04-08T02:44:29.665Z,98.96
2023-04-08T02:47:01.420Z,99.03
2023-04-08T02:49:30.825Z,98.96
2023-04-08T02:52:06.164Z,98.84
2023-04-08T02:54:37.037Z,98.30
2023-04-08T02:57:05.683Z,97.86
2023-04-08T02:59:41.455Z,97.86
2023-04-08T03:02:10.666Z,97.72
2023-04-08T03:04:39.315Z,97.53
2023-04-08T03:07:08.748Z,97.20
2023-04-08T03:09:44.799Z,97.41
2023-04-08T03:12:14.495Z,97.68
2023-04-08T03:14:42.782Z,97.33
2023-04-08T03:17:11.342Z,97.19
2023-04-08T03:19:40.134Z,96.98
2023-04-08T03:22:10.004Z,96.89
2023-04-08T03:24:39.251Z,96.75
2023-04-08T03:27:08.681Z,96.73
2023-04-08T03:29:37.037Z,96.57
2023-04-08T03:32:06.547Z,96.53
2023-04-08T03:34:35.829Z,96.52
2023-04-08T03:37:04.229Z,96.67
2023-04-08T03:39:33.512Z,96.44
2023-04-08T03:42:03.320Z,96.22
2023-04-08T03:44:31.724Z,96.65
2023-04-08T03:47:00.298Z,96.87
2023-04-08T03:49:28.864Z,97.54
2023-04-08T03:51:57.246Z,98.02
2023-04-08T03:54:25.722Z,98.30
2023-04-08T03:56:54.305Z,98.57
2023-04-08T03:59:23.717Z,99.34
2023-04-08T04:01:53.976Z,99.59
2023-04-08T04:04:22.564Z,100.00
2023-04-08T04:06:52.222Z,99.90
2023-04-08T04:09:21.384Z,99.49
2023-04-08T04:11:49.800Z,98.92
2023-04-08T04:14:19.103Z,98.84
2023-04-08T04:16:47.779Z,98.94
2023-04-08T04:19:18.001Z,99.75
2023-04-08T04:21:51.805Z,99.26
2023-04-08T04:24:20.496Z,99.01
2023-04-08T04:26:49.075Z,98.96
2023-04-08T04:29:17.457Z,99.28
2023-04-08T04:31:47.171Z,99.01
2023-04-08T04:34:18.106Z,98.79
2023-04-08T04:36:46.892Z,99.51
2023-04-08T04:39:16.500Z,98.55
2023-04-08T04:41:46.212Z,98.61
2023-04-08T04:44:15.354Z,97.81
2023-04-08T04:46:43.721Z,96.65
2023-04-08T04:49:12.570Z,95.62
2023-04-08T04:51:41.184Z,95.26
2023-04-08T04:54:09.643Z,94.97
2023-04-08T04:56:40.928Z,93.21
2023-04-08T04:59:16.694Z,91.43
2023-04-08T05:01:45.783Z,90.37
2023-04-08T05:04:14.243Z,87.30
2023-04-08T05:06:42.718Z,84.96
2023-04-08T05:09:11.789Z,83.70
2023-04-08T05:11:40.168Z,83.43
2023-04-08T05:14:13.874Z,82.57
2023-04-08T05:16:43.790Z,82.42
2023-04-08T05:19:12.267Z,82.68
2023-04-08T05:21:40.754Z,83.13
2023-04-08T05:24:09.128Z,83.17
2023-04-08T05:26:37.946Z,82.19
2023-04-08T05:29:08.107Z,81.33
2023-04-08T05:31:38.996Z,81.84
2023-04-08T05:34:07.455Z,81.68
2023-04-08T05:36:35.936Z,80.86
2023-04-08T05:39:06.261Z,80.49
2023-04-08T05:41:38.017Z,80.00
2023-04-08T05:44:06.609Z,78.77
2023-04-08T05:46:36.283Z,77.45
2023-04-08T05:49:04.896Z,77.12
2023-04-08T05:51:36.347Z,73.38
2023-04-08T05:54:04.927Z,71.32
2023-04-08T05:56:37.411Z,70.39
2023-04-08T05:59:06.605Z,69.70
2023-04-08T06:01:35.065Z,69.11
2023-04-08T06:04:03.777Z,68.16
2023-04-08T06:06:32.649Z,67.91
2023-04-08T06:09:01.007Z,66.74
2023-04-08T06:11:34.932Z,64.90
2023-04-08T06:14:03.639Z,64.42
2023-04-08T06:16:32.513Z,63.15
2023-04-08T06:19:01.568Z,61.15
2023-04-08T06:21:30.565Z,60.07
2023-04-08T06:23:59.078Z,59.62
2023-04-08T06:26:28.236Z,55.56
2023-04-08T06:28:56.481Z,54.42
2023-04-08T06:31:25.319Z,53.93
2023-04-08T06:33:56.280Z,53.84
2023-04-08T06:36:26.090Z,53.76
2023-04-08T06:38:55.385Z,53.77
2023-04-08T06:41:23.976Z,51.35
2023-04-08T06:43:52.349Z,51.26
2023-04-08T06:46:21.166Z,49.59
2023-04-08T06:48:49.753Z,49.64
2023-04-08T06:51:19.397Z,48.83
2023-04-08T06:53:48.531Z,47.44
2023-04-08T06:56:17.052Z,48.35
2023-04-08T06:58:46.512Z,48.08
2023-04-08T07:01:16.728Z,47.28
2023-04-08T07:03:45.478Z,48.24
2023-04-08T07:06:14.442Z,48.56
2023-04-08T07:08:43.818Z,48.77
2023-04-08T07:11:16.242Z,49.44
2023-04-08T07:13:44.571Z,50.17
2023-04-08T07:16:15.710Z,49.85
2023-04-08T07:18:48.383Z,50.89
2023-04-08T07:21:17.183Z,51.77
2023-04-08T07:23:46.582Z,52.81
2023-04-08T07:26:15.064Z,53.39
2023-04-08T07:28:48.923Z,54.82
2023-04-08T07:31:18.212Z,55.56
2023-04-08T07:33:46.724Z,55.76
2023-04-08T07:36:18.711Z,56.55
2023-04-08T07:38:47.633Z,56.30
2023-04-08T07:41:19.587Z,55.76
2023-04-08T07:43:47.957Z,55.88
2023-04-08T07:46:16.445Z,56.37
2023-04-08T07:48:45.351Z,56.94
2023-04-08T07:51:15.039Z,57.61
2023-04-08T07:53:43.401Z,58.05
2023-04-08T07:56:15.365Z,58.30
2023-04-08T07:58:43.881Z,58.18
2023-04-08T08:01:20.328Z,58.48
2023-04-08T08:03:51.280Z,59.16
2023-04-08T08:06:20.063Z,59.61
2023-04-08T08:08:48.545Z,60.00
2023-04-08T08:11:17.002Z,60.63
2023-04-08T08:13:53.473Z,60.92
2023-04-08T08:16:28.245Z,61.29
2023-04-08T08:18:56.780Z,61.62
2023-04-08T08:21:27.514Z,61.18
2023-04-08T08:23:57.145Z,60.63
2023-04-08T08:26:25.703Z,60.44
2023-04-08T08:28:58.592Z,59.67
2023-04-08T08:31:27.531Z,60.03
2023-04-08T08:33:56.285Z,59.97
2023-04-08T08:36:28.949Z,59.77
2023-04-08T08:38:57.532Z,60.03
2023-04-08T08:41:26.058Z,60.61
2023-04-08T08:43:54.497Z,60.27
2023-04-08T08:46:23.110Z,59.90
2023-04-08T08:48:51.633Z,59.05
2023-04-08T08:51:20.168Z,58.87
2023-04-08T08:53:51.312Z,59.54
2023-04-08T08:56:20.269Z,59.47
2023-04-08T08:58:49.371Z,58.10
2023-04-08T09:01:44.211Z,56.74
2023-04-08T09:04:23.264Z,56.98
2023-04-08T09:07:11.371Z,57.38
2023-04-08T09:09:58.453Z,57.77
2023-04-08T09:12:31.649Z,58.33
2023-04-08T09:15:05.146Z,58.89
2023-04-08T09:17:34.487Z,59.19
2023-04-08T09:20:12.478Z,59.18
2023-04-08T09:22:59.676Z,59.51
2023-04-08T09:25:32.824Z,60.20
2023-04-08T09:28:03.176Z,60.31
2023-04-08T09:30:32.551Z,60.91
2023-04-08T09:33:07.626Z,61.64
2023-04-08T09:35:36.774Z,61.71
2023-04-08T09:38:05.332Z,61.78
2023-04-08T09:40:39.007Z,61.84
2023-04-08T09:43:07.689Z,62.26
2023-04-08T09:45:36.304Z,62.27
2023-04-08T09:48:19.115Z,62.32
2023-04-08T09:50:50.876Z,62.48
2023-04-08T09:53:34.904Z,62.76
2023-04-08T09:56:03.375Z,62.63
2023-04-08T09:58:57.566Z,62.64
2023-04-08T10:01:29.036Z,63.14
2023-04-08T10:03:57.746Z,63.37
2023-04-08T10:06:28.883Z,63.64
2023-04-08T10:08:57.124Z,63.46
2023-04-08T10:11:25.493Z,63.70
2023-04-08T10:13:56.909Z,63.73
2023-04-08T10:16:27.776Z,63.72
2023-04-08T10:18:56.995Z,62.83
2023-04-08T10:21:32.986Z,62.74
2023-04-08T10:24:06.256Z,63.15
2023-04-08T10:26:39.320Z,62.86
2023-04-08T10:29:21.638Z,63.22
2023-04-08T10:31:53.404Z,62.83
2023-04-08T10:34:24.805Z,61.87
2023-04-08T10:36:53.616Z,59.85
2023-04-08T10:39:27.628Z,59.09
2023-04-08T10:41:56.737Z,58.85
2023-04-08T10:44:25.537Z,59.12
2023-04-08T10:46:54.299Z,58.89
2023-04-08T10:49:22.929Z,58.91
2023-04-08T10:51:56.893Z,58.09
2023-04-08T10:54:25.370Z,56.66
2023-04-08T10:56:54.975Z,55.95
2023-04-08T10:59:29.642Z,55.84
2023-04-08T11:01:58.722Z,55.97
2023-04-08T11:04:27.591Z,57.59
2023-04-08T11:06:56.658Z,58.69
2023-04-08T11:09:25.189Z,56.55
2023-04-08T11:11:53.874Z,56.08
2023-04-08T11:14:24.073Z,56.18
2023-04-08T11:16:52.661Z,56.30
2023-04-08T11:19:21.676Z,55.60
2023-04-08T11:21:51.510Z,55.68
2023-04-08T11:24:19.907Z,55.78
2023-04-08T11:26:48.221Z,55.27
2023-04-08T11:29:17.112Z,55.45
2023-04-08T11:31:45.498Z,55.62
2023-04-08T11:34:13.762Z,55.67
2023-04-08T11:36:42.672Z,55.72
2023-04-08T11:39:12.324Z,55.61
2023-04-08T11:41:41.696Z,55.06
2023-04-08T11:44:10.342Z,53.86
2023-04-08T11:46:41.160Z,52.59
2023-04-08T11:49:10.592Z,52.12
2023-04-08T11:51:55.229Z,51.81
2023-04-08T11:54:30.386Z,52.30
2023-04-08T11:56:59.273Z,53.19
2023-04-08T11:59:29.490Z,53.90
2023-04-08T12:01:59.420Z,54.17
2023-04-08T12:04:28.305Z,54.29
2023-04-08T12:06:58.305Z,54.94
2023-04-08T12:09:28.634Z,55.41
2023-04-08T12:11:58.288Z,55.85
2023-04-08T12:14:28.422Z,56.47
2023-04-08T12:16:57.254Z,58.03
2023-04-08T12:19:34.477Z,59.65
2023-04-08T12:22:04.352Z,59.08
2023-04-08T12:24:32.839Z,61.40
2023-04-08T12:27:02.856Z,64.42
2023-04-08T12:29:32.764Z,65.79
2023-04-08T12:32:03.194Z,66.70
2023-04-08T12:34:32.965Z,68.03
2023-04-08T12:37:01.284Z,68.16
2023-04-08T12:39:33.575Z,71.11
2023-04-08T12:42:02.153Z,73.41
2023-04-08T12:44:31.130Z,74.63
2023-04-08T12:46:59.836Z,74.93
2023-04-08T12:49:28.309Z,76.75
2023-04-08T12:51:56.797Z,75.02
2023-04-08T12:54:26.076Z,74.19
2023-04-08T12:56:54.268Z,72.12
2023-04-08T12:59:23.658Z,70.44
2023-04-08T13:01:52.077Z,70.72
2023-04-08T13:04:20.722Z,72.65
2023-04-08T13:06:49.222Z,72.75
2023-04-08T13:09:18.717Z,72.21
2023-04-08T13:11:47.598Z,72.09
2023-04-08T13:14:18.555Z,72.24
2023-04-08T13:16:47.172Z,71.88
2023-04-08T13:19:16.727Z,70.94
2023-04-08T13:21:46.242Z,70.80
2023-04-08T13:24:14.725Z,70.71
2023-04-08T13:26:43.704Z,70.34
2023-04-08T13:29:14.436Z,69.86
2023-04-08T13:31:45.839Z,69.22
2023-04-08T13:34:14.282Z,68.56
2023-04-08T13:36:42.850Z,67.58
2023-04-08T13:39:11.839Z,67.92
2023-04-08T13:41:40.728Z,68.43
2023-04-08T13:44:09.414Z,68.48
2023-04-08T13:46:37.690Z,67.64
2023-04-08T13:49:06.519Z,62.99
2023-04-08T13:51:35.672Z,60.22
2023-04-08T13:54:08.863Z,58.26
2023-04-08T13:56:38.368Z,57.54
2023-04-08T13:59:07.539Z,56.56
2023-04-08T14:01:36.541Z,56.39
2023-04-08T14:04:05.579Z,56.86
2023-04-08T14:06:35.161Z,56.86
2023-04-08T14:09:04.316Z,57.08
2023-04-08T14:11:33.179Z,57.36
2023-04-08T14:14:01.331Z,57.56
2023-04-08T14:16:32.068Z,57.82
2023-04-08T14:19:00.851Z,58.04
2023-04-08T14:21:29.219Z,57.96
2023-04-08T14:23:58.004Z,58.31
2023-04-08T14:26:26.792Z,58.82
2023-04-08T14:29:01.730Z,58.81
2023-04-08T14:31:30.026Z,58.67
2023-04-08T14:33:59.092Z,58.45
2023-04-08T14:36:28.320Z,57.85
2023-04-08T14:38:56.898Z,57.56
2023-04-08T14:41:27.414Z,57.87
2023-04-08T14:43:55.887Z,57.80
2023-04-08T14:46:28.571Z,57.97
2023-04-08T14:48:59.310Z,58.05
2023-04-08T14:51:27.784Z,58.35
2023-04-08T14:53:57.797Z,58.23
2023-04-08T14:56:26.732Z,58.52
2023-04-08T14:58:56.304Z,58.48
2023-04-08T15:01:25.012Z,58.63
2023-04-08T15:03:53.888Z,58.92
2023-04-08T15:06:23.384Z,59.07
2023-04-08T15:08:53.950Z,58.82
2023-04-08T15:11:22.489Z,58.99
2023-04-08T15:13:59.568Z,59.30
2023-04-08T15:16:28.386Z,59.71
2023-04-08T15:18:59.934Z,59.62
2023-04-08T15:21:28.945Z,59.27
2023-04-08T15:23:57.626Z,59.51
2023-04-08T15:26:27.751Z,59.64
2023-04-08T15:28:59.179Z,59.48
2023-04-08T15:31:27.973Z,59.64
2023-04-08T15:33:56.730Z,59.72
2023-04-08T15:36:25.646Z,59.99
2023-04-08T15:38:55.455Z,60.29
2023-04-08T15:41:26.485Z,60.48
2023-04-08T15:43:54.756Z,60.61
2023-04-08T15:46:26.676Z,61.00
2023-04-08T15:48:55.611Z,61.38
2023-04-08T15:51:23.981Z,61.72
2023-04-08T15:53:53.077Z,62.18
2023-04-08T15:56:24.383Z,62.85
2023-04-08T15:58:53.319Z,63.05
2023-04-08T16:01:24.996Z,63.48
2023-04-08T16:03:58.008Z,63.79
2023-04-08T16:06:26.885Z,63.99
2023-04-08T16:08:55.755Z,64.48
2023-04-08T16:11:25.451Z,64.61
2023-04-08T16:13:54.040Z,64.72
2023-04-08T16:16:22.753Z,64.96
2023-04-08T16:18:52.963Z,64.96
2023-04-08T16:21:21.622Z,65.15
2023-04-08T16:23:50.807Z,65.04
2023-04-08T16:26:21.973Z,64.95
2023-04-08T16:28:51.213Z,64.84
2023-04-08T16:31:20.173Z,64.97
2023-04-08T16:33:49.952Z,64.89
2023-04-08T16:36:19.411Z,64.83
2023-04-08T16:38:48.478Z,64.87
2023-04-08T16:41:16.906Z,65.09
2023-04-08T16:43:45.543Z,65.05
2023-04-08T16:46:17.699Z,64.97
2023-04-08T16:48:46.790Z,65.00
2023-04-08T16:51:15.274Z,65.25
2023-04-08T16:53:43.761Z,65.65
2023-04-08T16:56:16.540Z,65.70
2023-04-08T16:58:45.838Z,66.28
2023-04-08T17:01:21.346Z,66.49
2023-04-08T17:03:52.502Z,66.90
2023-04-08T17:06:21.130Z,67.11
2023-04-08T17:08:54.836Z,67.31
2023-04-08T17:11:23.935Z,67.40
2023-04-08T17:13:52.989Z,67.48
2023-04-08T17:16:23.256Z,67.86
2023-04-08T17:18:52.504Z,68.34
2023-04-08T17:21:21.008Z,68.85
2023-04-08T17:23:52.325Z,69.14
2023-04-08T17:26:25.034Z,69.34
2023-04-08T17:28:53.833Z,69.73
2023-04-08T17:31:22.906Z,69.89
2023-04-08T17:33:51.699Z,70.20
2023-04-08T17:36:20.412Z,70.40
2023-04-08T17:38:50.104Z,70.79
2023-04-08T17:41:38.320Z,71.28
2023-04-08T17:44:12.154Z,71.24
2023-04-08T17:46:42.067Z,71.59
2023-04-08T17:49:14.560Z,72.11
2023-04-08T17:51:43.127Z,72.41
2023-04-08T17:54:11.914Z,72.56
2023-04-08T17:56:46.190Z,72.38
2023-04-08T17:59:17.069Z,72.53
2023-04-08T18:01:47.024Z,72.08
2023-04-08T18:04:18.996Z,71.54
2023-04-08T18:06:48.038Z,71.11
2023-04-08T18:09:19.590Z,70.96
2023-04-08T18:11:49.506Z,71.21
2023-04-08T18:14:18.396Z,71.51
2023-04-08T18:16:53.858Z,71.95
2023-04-08T18:19:25.100Z,72.42
2023-04-08T18:21:53.797Z,72.53
2023-04-08T18:24:22.396Z,72.81
2023-04-08T18:27:01.465Z,72.90
2023-04-08T18:29:33.462Z,73.49
2023-04-08T18:32:02.349Z,73.65
2023-04-08T18:34:32.354Z,73.82
2023-04-08T18:37:04.660Z,74.29
2023-04-08T18:39:33.203Z,74.90
2023-04-08T18:42:03.224Z,75.58
2023-04-08T18:44:31.984Z,76.43
2023-04-08T18:47:02.951Z,77.40
2023-04-08T18:49:33.927Z,77.78
2023-04-08T18:52:03.508Z,78.76
2023-04-08T18:54:32.913Z,79.75
2023-04-08T18:57:03.178Z,80.44
2023-04-08T18:59:33.081Z,80.53
2023-04-08T19:02:02.766Z,80.48
2023-04-08T19:04:33.738Z,80.47
2023-04-08T19:07:02.611Z,80.83
2023-04-08T19:09:31.284Z,81.08
2023-04-08T19:12:00.877Z,81.51
2023-04-08T19:14:29.962Z,81.43
2023-04-08T19:17:03.104Z,81.84
2023-04-08T19:19:33.239Z,82.04
2023-04-08T19:22:03.223Z,82.52
2023-04-08T19:24:34.054Z,82.66
2023-04-08T19:27:02.441Z,82.87
2023-04-08T19:29:33.649Z,82.69
2023-04-08T19:32:05.355Z,82.88
2023-04-08T19:34:38.738Z,82.83
2023-04-08T19:37:08.817Z,83.07
2023-04-08T19:39:38.313Z,83.57
2023-04-08T19:42:12.604Z,83.80
2023-04-08T19:44:41.217Z,84.09
2023-04-08T19:47:10.016Z,84.33
2023-04-08T19:49:40.651Z,84.78
2023-04-08T19:52:09.421Z,85.18
2023-04-08T19:54:41.848Z,85.07
2023-04-08T19:57:11.060Z,85.64
2023-04-08T19:59:39.572Z,85.52
2023-04-08T20:02:08.350Z,85.54
2023-04-08T20:04:39.029Z,85.36
2023-04-08T20:07:07.490Z,84.67
2023-04-08T20:09:38.821Z,84.26
2023-04-08T20:12:07.624Z,83.86
2023-04-08T20:14:42.241Z,83.91
2023-04-08T20:17:10.619Z,83.63
2023-04-08T20:19:42.343Z,83.70
2023-04-08T20:22:11.470Z,83.69
2023-04-08T20:24:39.761Z,83.59
2023-04-08T20:27:11.533Z,83.93
2023-04-08T20:29:42.240Z,84.51
2023-04-08T20:32:11.037Z,85.04
2023-04-08T20:34:39.611Z,85.36
2023-04-08T20:37:08.732Z,84.94
2023-04-08T20:39:37.186Z,84.41
2023-04-08T20:42:06.792Z,84.23
2023-04-08T20:44:35.892Z,83.73
2023-04-08T20:47:05.425Z,83.44
2023-04-08T20:49:35.326Z,83.33
2023-04-08T20:52:06.760Z,83.37
2023-04-08T20:54:38.720Z,83.73
2023-04-08T20:57:07.096Z,83.95
2023-04-08T20:59:35.792Z,84.01
2023-04-08T21:02:04.253Z,83.90
2023-04-08T21:04:32.846Z,83.72
2023-04-08T21:07:02.045Z,83.57
2023-04-08T21:09:31.101Z,83.22
2023-04-08T21:11:59.414Z,83.00
2023-04-08T21:14:31.438Z,82.91
2023-04-08T21:17:00.267Z,83.21
2023-04-08T21:19:28.780Z,83.15
2023-04-08T21:21:59.482Z,83.06
2023-04-08T21:24:28.552Z,83.01
2023-04-08T21:26:57.777Z,82.98
2023-04-08T21:29:26.353Z,83.18
2023-04-08T21:31:54.996Z,83.41
2023-04-08T21:34:23.523Z,83.64
2023-04-08T21:36:52.313Z,83.81
2023-04-08T21:39:20.583Z,83.76
2023-04-08T21:41:49.592Z,84.01
2023-04-08T21:44:17.906Z,83.78
2023-04-08T21:46:46.269Z,83.72
2023-04-08T21:49:14.632Z,83.78
2023-04-08T21:51:45.353Z,83.62
2023-04-08T21:54:13.732Z,83.30
2023-04-08T21:56:43.769Z,83.19
2023-04-08T21:59:12.048Z,83.28
2023-04-08T22:01:40.834Z,83.10
2023-04-08T22:04:09.525Z,83.04
2023-04-08T22:06:38.996Z,83.23
2023-04-08T22:09:09.958Z,83.04
2023-04-08T22:11:39.235Z,83.26
2023-04-08T22:14:07.508Z,83.15
2023-04-08T22:16:37.132Z,83.39
2023-04-08T22:19:06.422Z,83.34
2023-04-08T22:21:37.457Z,83.41
2023-04-08T22:24:06.885Z,83.90
2023-04-08T22:26:35.544Z,83.97
2023-04-08T22:29:07.631Z,84.23
2023-04-08T22:31:36.502Z,84.29
2023-04-08T22:34:05.911Z,84.41
2023-04-08T22:36:34.589Z,84.01
2023-04-08T22:39:04.208Z,84.06
2023-04-08T22:41:32.473Z,84.08
2023-04-08T22:44:01.369Z,84.08
2023-04-08T22:46:29.795Z,84.17
2023-04-08T22:48:59.041Z,84.11
2023-04-08T22:51:31.179Z,83.77
2023-04-08T22:53:59.898Z,83.88
2023-04-08T22:56:29.008Z,83.84
2023-04-08T22:58:57.268Z,83.93
2023-04-08T23:01:26.180Z,83.75
2023-04-08T23:03:55.798Z,83.90
2023-04-08T23:06:28.990Z,84.14
2023-04-08T23:08:58.560Z,84.38
2023-04-08T23:11:27.620Z,84.25
2023-04-08T23:13:56.384Z,84.41
2023-04-08T23:16:25.181Z,84.30
2023-04-08T23:18:53.929Z,84.33
2023-04-08T23:21:26.470Z,84.37
2023-04-08T23:23:54.878Z,84.45
2023-04-08T23:26:23.455Z,84.59
2023-04-08T23:28:55.010Z,84.57
2023-04-08T23:31:23.721Z,84.51
2023-04-08T23:33:53.318Z,84.51
2023-04-08T23:36:23.279Z,84.37
2023-04-08T23:38:52.983Z,84.29
2023-04-08T23:41:21.814Z,84.30
2023-04-08T23:43:54.291Z,84.26
2023-04-08T23:46:23.222Z,84.11
2023-04-08T23:48:57.505Z,84.35
2023-04-08T23:51:27.005Z,84.50
2023-04-08T23:53:55.297Z,84.47
2023-04-08T23:56:25.196Z,84.47
2023-04-08T23:58:53.712Z,84.39
